CPX657 Details

Departure: Southwest Florida International Airport (KRSW)
Arrival: Miami International Airport (KMIA) at N/A
Route: CYY CYY9
Notes:


Current Weather Information
KRSW 230653Z AUTO 02004KT 9SM CLR 25/24 A2998 RMK AO2 SLP149 T02500239
KMIA 230653Z 00000KT 10SM FEW250 27/23 A2997 RMK AO2 SLP149 T02670228